Terminal Aerodrome Forecast
Issued by NWS Louisville, KY

Home | Current Version | Previous Version | Text Only | Print | Product List | Glossary On
Versions: 1 2 3 4 5 6 7 8 9 10 11 12 13 14
000
FTUS43 KLMK 210521
TAFSDF
TAF
KSDF 210521Z 2106/2212 14007KT P6SM FEW020 BKN250
     FM211500 19008G16KT P6SM SCT030 BKN150
     FM220000 15005KT P6SM VCSH SCT025 BKN100
     FM221000 10006KT P6SM -SHRA BKN025=

USA.gov is the U.S. government's official web portal to all federal, state and local government web resources and services.